Time;durP1;ratioP1;P1;durP2;ratioP2;P2;SDS_P1;SDS_P2;PMS_P1;PMS_P2;Temp;Humidity;BMP_temperature;BMP_pressure;BME280_temperature;BME280_humidity;BME280_pressure;Samples;Min_cycle;Max_cycle;Signal;HPM_P1;HPM_P2
2024/01/29 00:01:21;;;;;;;0.40;0.40;;;;;;;3.85;80.15;96419.66;5030133;28;20168;-68
2024/01/29 00:03:47;;;;;;;0.40;0.40;;;;;;;3.84;80.35;96418.00;5030039;28;20172;-68
2024/01/29 00:06:13;;;;;;;0.53;0.53;;;;;;;3.86;79.86;96410.91;5029614;28;20196;-68
2024/01/29 00:08:38;;;;;;;0.50;0.50;;;;;;;3.99;79.64;96424.50;5029926;28;20180;-67
2024/01/29 00:11:05;;;;;;;0.40;0.40;;;;;;;4.04;79.39;96434.56;5029915;28;20221;-68
2024/01/29 00:13:31;;;;;;;6.00;5.73;;;;;;;4.00;79.48;96433.16;5029626;28;20259;-68
2024/01/29 00:15:57;;;;;;;0.53;0.53;;;;;;;3.97;79.60;96430.81;5029845;28;20622;-68
2024/01/29 00:18:22;;;;;;;0.50;0.50;;;;;;;3.97;79.36;96430.81;5031227;28;20191;-68
2024/01/29 00:20:48;;;;;;;0.40;0.40;;;;;;;3.87;79.58;96419.53;5033632;28;20183;-68
2024/01/29 00:23:14;;;;;;;0.50;0.50;;;;;;;3.79;79.85;96435.81;5033274;28;20215;-68
2024/01/29 00:25:39;;;;;;;0.60;0.60;;;;;;;3.83;79.54;96438.97;5033436;28;20229;-68
2024/01/29 00:28:05;;;;;;;0.70;0.70;;;;;;;3.94;79.67;96441.50;5033508;28;20612;-68
2024/01/29 00:30:31;;;;;;;0.40;0.40;;;;;;;3.85;79.79;96434.47;5033344;28;20168;-68
2024/01/29 00:32:56;;;;;;;0.50;0.50;;;;;;;3.87;79.88;96435.16;5033373;28;20203;-68
2024/01/29 00:35:22;;;;;;;0.53;0.53;;;;;;;3.87;79.57;96438.59;5033437;28;20176;-68
2024/01/29 00:37:48;;;;;;;2.03;1.50;;;;;;;3.93;79.44;96445.88;5033262;28;20206;-68
2024/01/29 00:40:13;;;;;;;0.40;0.40;;;;;;;3.79;79.45;96435.81;5015681;28;20186;-67
2024/01/29 00:42:39;;;;;;;0.50;0.50;;;;;;;3.68;80.20;96439.31;5015466;28;20176;-68
2024/01/29 00:45:04;;;;;;;0.40;0.40;;;;;;;3.78;80.46;96440.19;5033069;28;20192;-68
2024/01/29 00:47:30;;;;;;;0.40;0.40;;;;;;;3.84;79.89;96445.84;5033240;28;20696;-68
2024/01/29 00:49:56;;;;;;;0.60;0.60;;;;;;;3.81;79.87;96436.50;5033084;28;20714;-68
2024/01/29 00:52:21;;;;;;;0.40;0.40;;;;;;;3.64;79.99;96416.25;5033079;28;20172;-68
2024/01/29 00:54:47;;;;;;;1.37;1.37;;;;;;;3.79;79.61;96430.63;5033073;28;20176;-68
2024/01/29 00:57:15;;;;;;;0.90;0.90;;;;;;;3.90;79.52;96448.75;5033144;28;20199;-68
2024/01/29 00:59:41;;;;;;;0.50;0.50;;;;;;;3.74;79.87;96443.19;5033060;28;20163;-68
2024/01/29 01:02:07;;;;;;;0.40;0.40;;;;;;;3.82;79.82;96451.16;5033009;28;20186;-68
2024/01/29 01:04:32;;;;;;;0.40;0.40;;;;;;;3.88;80.17;96452.44;5032881;28;20613;-67
2024/01/29 01:06:58;;;;;;;0.70;0.70;;;;;;;3.90;80.09;96455.72;5032772;28;20230;-68
2024/01/29 01:09:23;;;;;;;0.70;0.70;;;;;;;3.90;79.70;96451.34;5032838;28;20175;-68
2024/01/29 01:11:49;;;;;;;0.40;0.40;;;;;;;3.90;79.79;96453.94;5032671;28;20171;-68
2024/01/29 01:14:14;;;;;;;0.60;0.60;;;;;;;3.90;79.89;96453.94;5032723;28;20714;-68
2024/01/29 01:16:40;;;;;;;0.40;0.40;;;;;;;3.92;79.21;96456.44;5032635;28;20179;-68
2024/01/29 01:19:05;;;;;;;0.40;0.40;;;;;;;3.84;79.34;96459.69;5032420;28;20199;-68
2024/01/29 01:21:31;;;;;;;0.40;0.40;;;;;;;3.87;79.58;96445.59;5032480;28;20176;-68
2024/01/29 01:23:56;;;;;;;0.77;0.77;;;;;;;3.75;79.81;96447.44;5032374;28;20235;-68
2024/01/29 01:26:21;;;;;;;0.40;0.40;;;;;;;3.70;79.91;96452.22;5034775;28;20210;-67
2024/01/29 01:28:47;;;;;;;0.40;0.40;;;;;;;3.76;79.68;96446.50;5052131;28;20181;-67
2024/01/29 01:31:12;;;;;;;0.40;0.40;;;;;;;3.72;79.90;96429.47;5052346;28;20614;-67
2024/01/29 01:33:38;;;;;;;0.50;0.50;;;;;;;3.83;79.48;96444.19;5052285;28;20225;-67
2024/01/29 01:36:04;;;;;;;0.40;0.40;;;;;;;3.97;79.08;96444.69;5052344;28;20879;-68
2024/01/29 01:38:29;;;;;;;0.40;0.40;;;;;;;3.88;78.90;96442.84;5052147;28;20171;-67
2024/01/29 01:40:54;;;;;;;0.50;0.50;;;;;;;3.85;79.08;96435.28;5052122;28;20179;-67
2024/01/29 01:43:22;;;;;;;0.40;0.40;;;;;;;3.85;79.26;96435.28;5051897;28;20182;-67
2024/01/29 01:46:14;;;;;;;0.40;0.40;;;;;;;3.83;79.15;96431.16;5051803;28;20199;-67
2024/01/29 01:48:39;;;;;;;0.50;0.50;;;;;;;3.86;79.13;96436.94;5034223;28;20884;-67
2024/01/29 01:51:05;;;;;;;0.40;0.40;;;;;;;3.87;78.64;96424.75;5051806;28;20250;-68
2024/01/29 01:53:34;;;;;;;0.40;0.40;;;;;;;3.79;79.10;96425.41;5051760;28;20182;-67
2024/01/29 01:56:00;;;;;;;1.50;1.13;;;;;;;3.75;78.91;96435.25;5051891;28;20171;-68
2024/01/29 01:58:27;;;;;;;0.40;0.40;;;;;;;3.66;79.45;96425.59;5051695;28;20175;-67
2024/01/29 02:00:55;;;;;;;0.40;0.40;;;;;;;3.65;79.28;96431.75;5051567;28;20559;-68
2024/01/29 02:03:21;;;;;;;0.40;0.40;;;;;;;3.48;79.68;96439.34;5051567;28;20209;-68
2024/01/29 02:05:46;;;;;;;0.77;0.77;;;;;;;3.35;80.64;96442.97;5051424;28;20207;-68
2024/01/29 02:08:15;;;;;;;0.50;0.50;;;;;;;3.46;80.57;96436.84;5033621;28;20281;-67
2024/01/29 02:10:40;;;;;;;0.40;0.40;;;;;;;3.45;80.32;96444.81;5051556;28;20171;-67
2024/01/29 02:13:13;;;;;;;0.50;0.50;;;;;;;3.42;80.27;96444.09;5051404;28;20236;-68
2024/01/29 02:15:38;;;;;;;0.40;0.40;;;;;;;3.35;80.36;96426.53;5051541;28;20202;-68
2024/01/29 02:18:04;;;;;;;0.40;0.40;;;;;;;3.49;80.28;96448.78;5051609;28;20214;-67
2024/01/29 02:20:31;;;;;;;0.40;0.40;;;;;;;3.51;80.86;96441.69;5051316;28;20171;-68
2024/01/29 02:22:56;;;;;;;0.40;0.40;;;;;;;3.30;81.36;96441.69;5051156;28;20866;-67
2024/01/29 02:25:22;;;;;;;0.50;0.50;;;;;;;3.36;81.30;96447.22;5051171;28;20211;-67
2024/01/29 02:27:47;;;;;;;0.70;0.70;;;;;;;3.10;82.04;96442.50;5033345;28;20182;-67
2024/01/29 02:30:13;;;;;;;0.40;0.40;;;;;;;3.30;81.87;96444.28;5051046;28;20182;-67
2024/01/29 02:32:39;;;;;;;0.43;0.43;;;;;;;3.33;81.98;96444.88;5050984;28;20241;-67
2024/01/29 02:35:05;;;;;;;0.40;0.40;;;;;;;3.37;81.56;96442.84;5051077;28;20163;-67
2024/01/29 02:37:31;;;;;;;0.40;0.40;;;;;;;3.40;81.89;96447.78;5050929;28;20179;-67
2024/01/29 02:39:57;;;;;;;0.40;0.40;;;;;;;3.41;81.92;96441.63;5050695;28;20213;-67
2024/01/29 02:42:23;;;;;;;0.40;0.40;;;;;;;3.43;81.96;96442.34;5050433;28;20257;-67
2024/01/29 02:44:48;;;;;;;0.40;0.40;;;;;;;3.40;81.89;96443.41;5050793;28;20566;-67
2024/01/29 02:47:17;;;;;;;0.30;0.30;;;;;;;3.50;81.63;96440.88;5050870;28;20282;-67
2024/01/29 02:49:45;;;;;;;0.40;0.40;;;;;;;3.60;81.21;96453.94;5033035;28;20264;-67
2024/01/29 02:52:12;;;;;;;0.40;0.40;;;;;;;3.44;80.93;96440.56;5050708;28;20536;-67
2024/01/29 02:54:37;;;;;;;0.50;0.50;;;;;;;3.39;81.26;96420.94;5050783;28;20638;-67
2024/01/29 02:57:06;;;;;;;0.40;0.40;;;;;;;3.49;81.54;96431.41;5050664;28;20182;-67
2024/01/29 02:59:31;;;;;;;0.50;0.50;;;;;;;3.56;81.83;96455.13;5050523;28;20276;-67
2024/01/29 03:01:57;;;;;;;0.40;0.40;;;;;;;3.53;81.23;96440.63;5050591;28;20206;-67
2024/01/29 03:04:23;;;;;;;0.60;0.60;;;;;;;3.58;81.23;96459.28;5050633;28;20175;-68
2024/01/29 03:06:48;;;;;;;0.50;0.50;;;;;;;3.60;81.18;96448.72;5050442;28;20709;-68
2024/01/29 03:09:14;;;;;;;0.40;0.40;;;;;;;3.54;80.76;96433.63;5050443;28;20189;-68
2024/01/29 03:11:43;;;;;;;0.40;0.40;;;;;;;3.57;80.92;96428.97;5050473;28;20171;-67
2024/01/29 03:14:08;;;;;;;0.70;0.70;;;;;;;3.62;80.91;96449.44;5050442;28;20233;-67
2024/01/29 03:16:34;;;;;;;0.50;0.50;;;;;;;3.52;80.89;96436.38;5050390;28;20171;-67
2024/01/29 03:19:00;;;;;;;0.40;0.40;;;;;;;3.57;80.72;96446.38;5050449;28;20659;-67
2024/01/29 03:21:28;;;;;;;0.40;0.40;;;;;;;3.21;80.93;96390.41;5050611;28;20182;-67
2024/01/29 03:23:55;;;;;;;0.40;0.40;;;;;;;3.70;80.76;96439.19;5050188;28;20234;-67
2024/01/29 03:26:21;;;;;;;0.50;0.50;;;;;;;3.79;80.21;96446.25;5050430;28;20607;-67
2024/01/29 03:28:46;;;;;;;0.40;0.40;;;;;;;3.75;80.04;96444.84;5050543;28;20175;-68
2024/01/29 03:31:11;;;;;;;0.50;0.50;;;;;;;3.67;80.46;96453.28;5050333;28;20252;-67
2024/01/29 03:33:37;;;;;;;0.50;0.50;;;;;;;3.68;80.82;96448.91;5050321;28;20171;-67
2024/01/29 03:36:04;;;;;;;0.40;0.40;;;;;;;3.68;80.63;96451.53;5050212;28;20202;-67
2024/01/29 03:38:29;;;;;;;0.40;0.40;;;;;;;3.73;80.23;96451.94;5050318;28;20171;-67
2024/01/29 03:40:54;;;;;;;0.40;0.40;;;;;;;3.75;80.01;96450.88;5050174;28;20182;-67
2024/01/29 03:43:20;;;;;;;1.97;1.80;;;;;;;3.69;79.55;96450.56;5050153;28;20628;-67
2024/01/29 03:45:47;;;;;;;0.40;0.40;;;;;;;3.76;79.34;96451.69;5050074;28;20682;-68
2024/01/29 03:48:12;;;;;;;0.60;0.60;;;;;;;3.78;79.31;96455.00;5050180;28;20167;-68
2024/01/29 03:50:38;;;;;;;0.40;0.40;;;;;;;3.81;79.03;96449.50;5050053;28;20636;-68
2024/01/29 03:53:03;;;;;;;0.40;0.40;;;;;;;3.86;79.22;96454.34;5050813;28;20211;-68
2024/01/29 03:55:29;;;;;;;0.40;0.40;;;;;;;3.80;78.70;96437.47;5054032;28;20170;-68
2024/01/29 03:57:54;;;;;;;0.40;0.40;;;;;;;3.60;79.15;96446.13;5053998;28;20566;-68
2024/01/29 04:00:20;;;;;;;0.40;0.40;;;;;;;3.51;79.53;96439.09;5053916;28;20716;-68
2024/01/29 04:02:48;;;;;;;0.40;0.40;;;;;;;3.65;79.44;96447.38;5053951;28;20194;-68
2024/01/29 04:05:15;;;;;;;0.40;0.40;;;;;;;3.65;79.31;96439.56;5053880;28;20221;-68
2024/01/29 04:07:40;;;;;;;0.40;0.40;;;;;;;3.68;78.88;96448.91;5053836;28;20171;-68
2024/01/29 04:10:06;;;;;;;0.40;0.40;;;;;;;3.63;78.80;96431.06;5053725;28;20193;-67
2024/01/29 04:12:32;;;;;;;0.40;0.40;;;;;;;3.78;78.66;96440.19;5053790;28;20236;-68
2024/01/29 04:14:57;;;;;;;0.40;0.40;;;;;;;3.87;78.43;96451.63;5053819;28;20176;-68
2024/01/29 04:17:23;;;;;;;0.40;0.40;;;;;;;3.89;78.31;96452.31;5053598;28;20193;-68
2024/01/29 04:19:48;;;;;;;0.40;0.40;;;;;;;3.92;77.43;96452.03;5053574;28;20182;-67
2024/01/29 04:22:13;;;;;;;0.40;0.40;;;;;;;3.74;78.45;96451.00;5053345;28;20632;-68
2024/01/29 04:24:39;;;;;;;0.40;0.40;;;;;;;3.68;79.20;96451.53;5053391;28;20175;-68
2024/01/29 04:27:04;;;;;;;0.40;0.40;;;;;;;3.53;79.68;96445.00;5053446;28;20225;-67
2024/01/29 04:29:30;;;;;;;0.40;0.40;;;;;;;3.59;80.30;96455.72;5053465;28;20659;-68
2024/01/29 04:31:55;;;;;;;0.40;0.40;;;;;;;3.66;79.88;96454.25;5053434;28;20573;-68
2024/01/29 04:34:21;;;;;;;0.50;0.50;;;;;;;3.63;80.42;96464.09;5053321;28;20656;-68
2024/01/29 04:36:46;;;;;;;0.97;0.97;;;;;;;3.61;80.67;96463.41;5053280;28;20258;-68
2024/01/29 04:39:12;;;;;;;0.40;0.40;;;;;;;3.63;80.48;96474.53;5053157;28;20182;-68
2024/01/29 04:41:37;;;;;;;0.50;0.50;;;;;;;3.66;80.22;96450.81;5035254;28;20206;-68
2024/01/29 04:44:03;;;;;;;0.40;0.40;;;;;;;3.56;79.91;96461.16;5053137;28;20181;-68
2024/01/29 04:46:28;;;;;;;0.50;0.50;;;;;;;3.74;79.61;96474.44;5053260;28;20207;-68
2024/01/29 04:48:54;;;;;;;0.40;0.40;;;;;;;3.77;79.23;96474.19;5053098;28;20175;-68
2024/01/29 04:51:20;;;;;;;0.40;0.40;;;;;;;3.82;79.65;96474.59;5052961;28;20213;-68
2024/01/29 04:53:45;;;;;;;0.40;0.40;;;;;;;3.88;79.36;96483.72;5053066;28;20229;-68
2024/01/29 04:56:12;;;;;;;0.40;0.40;;;;;;;3.75;79.17;96452.66;5052883;28;20203;-70
2024/01/29 04:58:37;;;;;;;0.93;0.93;;;;;;;3.89;79.12;96478.38;5052945;28;20175;-68
2024/01/29 05:01:03;;;;;;;0.40;0.40;;;;;;;4.05;78.86;96488.31;5049500;28;20178;-68
2024/01/29 05:03:28;;;;;;;0.50;0.50;;;;;;;3.96;78.50;96495.13;5041224;28;20198;-68
2024/01/29 05:05:54;;;;;;;0.50;0.50;;;;;;;3.80;79.68;96490.34;5032518;28;20589;-69
2024/01/29 05:08:20;;;;;;;0.40;0.40;;;;;;;3.81;79.94;96506.81;5050976;28;20183;-69
2024/01/29 05:10:46;;;;;;;0.50;0.50;;;;;;;3.87;80.09;96505.50;5052434;28;20225;-69
2024/01/29 05:13:12;;;;;;;0.40;0.40;;;;;;;3.93;79.78;96500.59;5052623;28;20171;-67
2024/01/29 05:15:38;;;;;;;0.50;0.50;;;;;;;3.92;79.40;96505.91;5052520;28;20175;-67
2024/01/29 05:18:03;;;;;;;0.60;0.60;;;;;;;3.84;79.18;96517.00;5052579;28;20182;-67
2024/01/29 05:20:30;;;;;;;0.40;0.40;;;;;;;3.59;80.24;96506.97;5034789;28;20184;-67
2024/01/29 05:22:55;;;;;;;2.20;2.00;;;;;;;3.63;80.16;96506.56;5032403;28;20718;-68
2024/01/29 05:25:21;;;;;;;3.50;1.27;;;;;;;3.30;81.57;96510.16;5032292;28;20192;-67
2024/01/29 05:27:47;;;;;;;0.67;0.67;;;;;;;3.39;81.49;96513.81;5032464;28;20262;-67
2024/01/29 05:30:13;;;;;;;0.50;0.50;;;;;;;3.39;81.48;96512.03;5032456;28;20183;-67
2024/01/29 05:32:38;;;;;;;0.50;0.50;;;;;;;3.53;80.88;96515.28;5032300;28;20584;-68
2024/01/29 05:35:04;;;;;;;1.93;1.73;;;;;;;3.22;81.16;96514.34;5032152;28;20243;-67
2024/01/29 05:37:32;;;;;;;0.50;0.50;;;;;;;3.33;81.46;96511.72;5032066;28;20201;-67
2024/01/29 05:39:57;;;;;;;1.37;1.27;;;;;;;3.20;82.23;96518.88;5032050;28;20186;-67
2024/01/29 05:42:23;;;;;;;0.50;0.50;;;;;;;3.31;82.32;96519.63;5039049;28;20602;-67
2024/01/29 05:44:48;;;;;;;0.50;0.50;;;;;;;3.20;82.30;96513.66;5044347;28;20670;-67
2024/01/29 05:47:15;;;;;;;0.50;0.50;;;;;;;3.36;82.30;96520.09;5045218;28;20215;-67
2024/01/29 05:49:40;;;;;;;1.13;1.13;;;;;;;3.48;81.75;96526.06;5031671;28;20570;-67
2024/01/29 05:52:06;;;;;;;0.50;0.50;;;;;;;3.54;81.40;96519.53;5036917;28;20179;-67
2024/01/29 05:54:31;;;;;;;0.40;0.40;;;;;;;3.51;81.42;96530.19;5051713;28;20171;-67
2024/01/29 05:56:57;;;;;;;0.40;0.40;;;;;;;3.49;81.15;96527.72;5034500;28;20203;-67
2024/01/29 05:59:23;;;;;;;1.43;1.37;;;;;;;3.52;81.11;96531.84;5014075;28;20179;-67
2024/01/29 06:01:48;;;;;;;0.50;0.50;;;;;;;3.63;80.79;96529.19;5013952;28;20206;-67
2024/01/29 06:04:14;;;;;;;0.40;0.40;;;;;;;3.67;81.00;96533.19;5031658;28;20233;-67
2024/01/29 06:06:41;;;;;;;0.40;0.40;;;;;;;3.61;80.78;96512.88;5031381;28;20199;-68
2024/01/29 06:09:09;;;;;;;0.30;0.30;;;;;;;3.68;80.51;96516.63;5031472;28;20207;-67
2024/01/29 06:11:35;;;;;;;0.40;0.40;;;;;;;3.72;80.43;96533.63;5031322;28;20535;-67
2024/01/29 06:14:01;;;;;;;0.40;0.40;;;;;;;3.75;80.39;96536.81;5033409;28;20183;-67
2024/01/29 06:16:26;;;;;;;0.57;0.57;;;;;;;3.74;80.21;96540.38;5050529;28;20174;-67
2024/01/29 06:18:52;;;;;;;0.40;0.40;;;;;;;3.46;80.42;96514.94;5051142;28;21024;-67
2024/01/29 06:21:17;;;;;;;0.40;0.40;;;;;;;3.62;80.51;96544.00;5050981;28;20194;-67
2024/01/29 06:23:42;;;;;;;2.30;1.27;;;;;;;3.65;80.62;96543.72;5050457;28;20230;-67
2024/01/29 06:26:09;;;;;;;0.40;0.40;;;;;;;3.75;80.41;96555.03;5050800;28;20195;-66
2024/01/29 06:28:34;;;;;;;0.50;0.50;;;;;;;3.59;80.32;96541.63;5050854;28;20171;-67
2024/01/29 06:31:01;;;;;;;0.40;0.40;;;;;;;3.54;80.74;96538.59;5050866;28;20163;-67
2024/01/29 06:33:27;;;;;;;0.97;0.97;;;;;;;3.56;80.23;96551.47;5050573;28;20178;-66
2024/01/29 06:35:52;;;;;;;0.40;0.40;;;;;;;3.59;80.20;96527.78;5050719;28;20171;-67
2024/01/29 06:38:18;;;;;;;0.40;0.40;;;;;;;3.89;79.39;96551.31;5050774;28;20234;-67
2024/01/29 06:40:43;;;;;;;0.50;0.50;;;;;;;3.88;79.67;96551.44;5050979;28;20213;-67
2024/01/29 06:43:09;;;;;;;0.40;0.40;;;;;;;3.86;79.33;96550.72;5050279;28;20183;-67
2024/01/29 06:45:35;;;;;;;0.40;0.40;;;;;;;3.83;79.31;96551.78;5050475;28;20195;-67
2024/01/29 06:48:01;;;;;;;0.40;0.40;;;;;;;3.97;79.11;96561.91;5050513;28;20182;-67
2024/01/29 06:50:27;;;;;;;0.50;0.50;;;;;;;3.96;78.84;96564.63;5050592;28;20762;-68
2024/01/29 06:52:52;;;;;;;0.50;0.50;;;;;;;3.92;78.52;96563.22;5050338;28;20253;-67
2024/01/29 06:55:20;;;;;;;0.40;0.40;;;;;;;3.79;78.31;96566.03;5046569;28;20197;-68
2024/01/29 06:57:46;;;;;;;0.40;0.40;;;;;;;3.64;78.30;96533.44;5030175;28;20175;-67
2024/01/29 07:00:12;;;;;;;0.70;0.70;;;;;;;4.03;77.43;96566.59;5030221;28;20179;-67
2024/01/29 07:02:38;;;;;;;0.40;0.40;;;;;;;4.04;76.67;96557.84;5031035;28;20176;-67
2024/01/29 07:05:04;;;;;;;0.40;0.40;;;;;;;4.16;76.42;96563.78;5012626;28;20186;-67
2024/01/29 07:07:29;;;;;;;0.30;0.30;;;;;;;4.13;75.92;96566.66;5030146;28;20184;-67
2024/01/29 07:09:55;;;;;;;0.40;0.40;;;;;;;4.29;75.58;96569.63;5030291;28;20175;-67
2024/01/29 07:12:22;;;;;;;0.40;0.40;;;;;;;4.13;75.94;96557.06;5030500;28;20195;-67
2024/01/29 07:14:48;;;;;;;0.40;0.40;;;;;;;4.24;76.02;96576.19;5012520;28;20576;-66
2024/01/29 07:17:14;;;;;;;0.40;0.40;;;;;;;4.17;nan;96555.84;5030273;28;20187;-67
2024/01/29 07:19:39;;;;;;;2.00;1.17;;;;;;;4.30;75.70;96573.06;5030078;28;20164;-67
2024/01/29 07:22:08;;;;;;;0.40;0.40;;;;;;;4.28;73.84;96573.19;5042256;28;20171;-68
2024/01/29 07:24:34;;;;;;;0.43;0.43;;;;;;;4.24;73.58;96581.41;5029974;28;20306;-67
2024/01/29 07:27:00;;;;;;;0.40;0.40;;;;;;;4.10;73.43;96541.69;5031383;28;20233;-68
2024/01/29 07:29:31;;;;;;;0.40;0.40;;;;;;;4.31;73.61;96572.94;5048886;28;20255;-67
2024/01/29 07:31:58;;;;;;;0.40;0.40;;;;;;;4.23;73.99;96545.88;5056814;28;20179;-67
2024/01/29 07:34:26;;;;;;;0.30;0.30;;;;;;;4.46;73.30;96573.41;5056420;28;20174;-68
2024/01/29 07:36:51;;;;;;;0.40;0.40;;;;;;;4.34;73.31;96551.81;5056718;28;20159;-68
2024/01/29 07:39:17;;;;;;;0.50;0.50;;;;;;;4.47;74.19;96572.47;5056719;28;20182;-68
2024/01/29 07:41:42;;;;;;;0.40;0.40;;;;;;;4.59;74.71;96576.59;5056320;28;20250;-68
2024/01/29 07:44:08;;;;;;;0.30;0.30;;;;;;;4.51;75.54;96556.41;5056643;28;20183;-68
2024/01/29 07:46:34;;;;;;;0.40;0.40;;;;;;;4.66;74.95;96572.53;5056416;28;20772;-68
2024/01/29 07:49:02;;;;;;;6.33;5.67;;;;;;;4.78;74.96;96574.06;5056420;28;20183;-68
2024/01/29 07:51:28;;;;;;;0.70;0.70;;;;;;;4.94;74.21;96565.75;5056586;28;20596;-68
2024/01/29 07:53:53;;;;;;;0.57;0.57;;;;;;;4.96;73.65;96573.44;5056213;28;20205;-68
2024/01/29 07:56:19;;;;;;;0.60;0.60;;;;;;;4.99;73.30;96565.34;5044453;28;20174;-68
2024/01/29 07:58:44;;;;;;;0.40;0.40;;;;;;;5.14;73.09;96577.88;5036606;28;20176;-68
2024/01/29 08:01:10;;;;;;;0.40;0.40;;;;;;;5.13;72.20;96576.22;5036495;28;20176;-68
2024/01/29 08:03:35;;;;;;;0.40;0.40;;;;;;;5.14;72.40;96580.50;5018598;28;20190;-68
2024/01/29 08:06:01;;;;;;;0.40;0.40;;;;;;;5.22;72.38;96585.03;5054389;28;20211;-68
2024/01/29 08:08:28;;;;;;;0.40;0.40;;;;;;;5.17;72.31;96584.63;5048779;28;20205;-67
2024/01/29 08:11:00;;;;;;;0.40;0.40;;;;;;;5.22;72.28;96593.69;5056226;28;20182;-67
2024/01/29 08:13:27;;;;;;;0.40;0.40;;;;;;;5.28;71.89;96589.72;5043724;28;20180;-67
2024/01/29 08:15:53;;;;;;;1.00;0.97;;;;;;;5.34;71.96;96596.19;5038394;28;20167;-67
2024/01/29 08:18:18;;;;;;;0.40;0.40;;;;;;;5.40;70.90;96601.69;5049913;28;20221;-67
2024/01/29 08:20:44;;;;;;;1.03;0.67;;;;;;;5.46;70.43;96595.91;5046202;28;20175;-68
2024/01/29 08:23:10;;;;;;;0.57;0.57;;;;;;;5.45;70.89;96589.03;5047787;28;20226;-68
2024/01/29 08:25:36;;;;;;;0.43;0.43;;;;;;;5.56;71.77;96603.75;5047965;28;20191;-67
2024/01/29 08:28:01;;;;;;;0.50;0.50;;;;;;;5.76;71.57;96608.03;5055962;28;20289;-68
2024/01/29 08:30:27;;;;;;;4.03;3.83;;;;;;;5.95;71.11;96609.84;5046430;28;20294;-68
2024/01/29 08:32:52;;;;;;;0.40;0.40;;;;;;;6.07;70.51;96614.78;5037711;28;20188;-69
2024/01/29 08:35:18;;;;;;;0.53;0.53;;;;;;;6.17;69.40;96616.56;5044807;28;20225;-69
2024/01/29 08:37:45;;;;;;;0.57;0.57;;;;;;;6.02;68.92;96600.50;5040218;28;20176;-68
2024/01/29 08:40:11;;;;;;;0.40;0.40;;;;;;;6.12;68.45;96618.78;5044416;28;20183;-67
2024/01/29 08:42:36;;;;;;;0.47;0.47;;;;;;;6.26;67.83;96616.56;5043603;28;20293;-67
2024/01/29 08:45:03;;;;;;;0.40;0.40;;;;;;;6.40;66.52;96630.97;5043506;28;20247;-69
2024/01/29 08:47:29;;;;;;;0.40;0.40;;;;;;;6.53;65.70;96626.28;5042456;28;20174;-70
2024/01/29 08:49:54;;;;;;;0.40;0.40;;;;;;;6.55;65.91;96629.56;5051698;28;20176;-69
2024/01/29 08:52:20;;;;;;;0.40;0.40;;;;;;;6.33;65.08;96599.31;5031729;28;20615;-68
2024/01/29 08:54:45;;;;;;;0.87;0.87;;;;;;;6.57;64.72;96627.66;5043915;28;20174;-67
2024/01/29 08:57:11;;;;;;;0.73;0.73;;;;;;;5.83;65.86;96621.38;5051414;28;20520;-68
2024/01/29 08:59:38;;;;;;;0.40;0.40;;;;;;;6.07;67.06;96620.00;5039549;28;20176;-67
2024/01/29 09:02:03;;;;;;;0.47;0.47;;;;;;;6.09;67.12;96625.09;5042760;28;20171;-67
2024/01/29 09:04:29;;;;;;;3.13;2.97;;;;;;;6.14;66.87;96620.28;5040251;28;20176;-68
2024/01/29 09:06:55;;;;;;;0.70;0.70;;;;;;;6.26;65.32;96628.81;5041071;28;20214;-68
2024/01/29 09:09:21;;;;;;;1.73;1.63;;;;;;;5.50;66.23;96628.66;5040335;28;20274;-68
2024/01/29 09:11:46;;;;;;;11.87;1.80;;;;;;;4.88;68.98;96631.50;5039398;28;20645;-67
2024/01/29 09:14:12;;;;;;;1.80;1.63;;;;;;;5.17;72.53;96629.81;5041295;28;20183;-69
2024/01/29 09:16:39;;;;;;;5.03;3.97;;;;;;;5.24;67.76;96598.78;5042275;28;20253;-68
2024/01/29 09:19:04;;;;;;;0.50;0.50;;;;;;;5.41;67.01;96632.06;5040752;28;20180;-69
2024/01/29 09:21:34;;;;;;;0.57;0.57;;;;;;;5.18;68.27;96609.78;5040051;28;20705;-68
2024/01/29 09:24:00;;;;;;;0.40;0.40;;;;;;;5.35;68.73;96624.78;5039423;28;20211;-68
2024/01/29 09:26:25;;;;;;;0.53;0.53;;;;;;;5.28;69.21;96623.66;5039892;28;20194;-68
2024/01/29 09:28:51;;;;;;;0.53;0.53;;;;;;;5.35;68.65;96624.78;5039753;28;20167;-68
2024/01/29 09:31:16;;;;;;;1.03;1.03;;;;;;;5.41;68.45;96616.41;5042405;28;20278;-69
2024/01/29 09:33:42;;;;;;;0.40;0.40;;;;;;;5.38;68.76;96611.44;5039589;28;20164;-68
2024/01/29 09:36:09;;;;;;;1.33;1.23;;;;;;;5.50;68.21;96618.19;5041866;28;20186;-68
2024/01/29 09:38:34;;;;;;;0.60;0.60;;;;;;;5.64;66.99;96622.19;5041315;28;20260;-69
2024/01/29 09:41:01;;;;;;;0.43;0.43;;;;;;;5.79;66.12;96617.41;5042821;28;20250;-68
2024/01/29 09:43:27;;;;;;;0.40;0.40;;;;;;;5.63;65.13;96604.84;5038595;28;20187;-68
2024/01/29 09:45:54;;;;;;;0.40;0.40;;;;;;;5.77;65.81;96617.53;5041918;28;20194;-68
2024/01/29 09:48:21;;;;;;;3.23;3.03;;;;;;;5.66;64.14;96602.00;5042036;28;20201;-68
2024/01/29 09:50:49;;;;;;;0.47;0.47;;;;;;;5.56;64.43;96616.81;5035467;28;20211;-68
2024/01/29 09:53:19;;;;;;;0.70;0.70;;;;;;;5.41;59.38;96607.75;5044795;28;20250;-68
2024/01/29 09:55:45;;;;;;;0.40;0.40;;;;;;;5.69;58.12;96612.19;5031217;28;20183;-68
2024/01/29 09:58:10;;;;;;;0.90;0.83;;;;;;;5.61;56.71;96612.84;5035551;28;20179;-69
2024/01/29 10:00:36;;;;;;;0.30;0.30;;;;;;;5.58;55.60;96612.28;5023466;28;20644;-68
2024/01/29 10:03:05;;;;;;;0.50;0.50;;;;;;;5.62;56.43;96619.72;5040414;28;20168;-69
2024/01/29 10:05:31;;;;;;;7.33;7.00;;;;;;;5.74;56.75;96612.56;5031537;28;20286;-68
2024/01/29 10:08:05;;;;;;;0.77;0.77;;;;;;;5.77;56.69;96608.88;5045903;28;20533;-68
2024/01/29 10:10:30;;;;;;;0.40;0.40;;;;;;;5.85;56.62;96609.00;5029403;28;20546;-69
2024/01/29 10:13:09;;;;;;;0.30;0.30;;;;;;;5.76;56.49;96615.88;5042174;28;20230;-68
2024/01/29 10:15:34;;;;;;;0.80;0.80;;;;;;;5.81;56.99;96602.38;5050265;28;20170;-68
2024/01/29 10:18:00;;;;;;;0.47;0.47;;;;;;;5.77;57.00;96606.25;5035752;28;20179;-68
2024/01/29 10:20:31;;;;;;;0.40;0.40;;;;;;;5.67;57.27;96612.31;5031204;28;20214;-68
2024/01/29 10:23:00;;;;;;;0.40;0.40;;;;;;;5.71;57.62;96610.22;4997684;28;20712;-68
2024/01/29 10:25:27;;;;;;;0.47;0.47;;;;;;;5.80;54.73;96614.63;5034793;28;20198;-68
2024/01/29 10:27:52;;;;;;;0.40;0.40;;;;;;;5.73;54.03;96610.91;5041808;28;20167;-68
2024/01/29 10:30:18;;;;;;;0.90;0.90;;;;;;;5.74;53.02;96602.13;5046325;28;20534;-67
2024/01/29 10:32:43;;;;;;;0.63;0.63;;;;;;;5.64;53.59;96603.91;5039875;28;20172;-68
2024/01/29 10:35:09;;;;;;;0.40;0.40;;;;;;;5.50;54.35;96568.59;5045324;28;20206;-69
2024/01/29 10:37:34;;;;;;;0.97;0.97;;;;;;;5.64;53.49;96581.22;5033195;28;20182;-68
2024/01/29 10:40:02;;;;;;;0.50;0.50;;;;;;;5.81;53.48;96605.00;5030410;28;20251;-68
2024/01/29 10:42:28;;;;;;;0.40;0.40;;;;;;;5.73;53.18;96583.97;5030355;28;20184;-68
2024/01/29 10:44:58;;;;;;;0.40;0.40;;;;;;;5.84;52.90;96591.66;5030263;28;20191;-69
2024/01/29 10:47:29;;;;;;;0.40;0.40;;;;;;;5.81;52.91;96595.38;5030678;28;20191;-68
2024/01/29 10:49:58;;;;;;;0.50;0.50;;;;;;;5.97;52.63;96592.22;5048998;28;20190;-68
2024/01/29 10:52:25;;;;;;;0.40;0.40;;;;;;;5.98;52.26;96593.88;5032743;28;20631;-69
2024/01/29 10:54:51;;;;;;;1.83;1.67;;;;;;;5.89;52.33;96586.88;5050135;28;20190;-68
2024/01/29 10:57:18;;;;;;;0.30;0.30;;;;;;;5.94;52.14;96592.53;5046386;28;20175;-67
2024/01/29 10:59:45;;;;;;;0.40;0.40;;;;;;;5.73;51.96;96581.34;5040025;28;20363;-68
2024/01/29 11:02:16;;;;;;;0.40;0.40;;;;;;;5.76;52.40;96588.94;5030264;28;20190;-67
2024/01/29 11:04:43;;;;;;;0.50;0.50;;;;;;;5.83;52.20;96588.22;5046343;28;20265;-67
2024/01/29 11:07:16;;;;;;;0.40;0.40;;;;;;;5.61;51.89;96576.28;5038599;28;20580;-67
2024/01/29 11:09:57;;;;;;;0.50;0.50;;;;;;;5.02;54.37;96575.50;5030128;28;20168;-67
2024/01/29 11:12:25;;;;;;;0.40;0.40;;;;;;;4.87;54.78;96580.28;5030292;28;20275;-67
2024/01/29 11:15:00;;;;;;;0.67;0.67;;;;;;;4.73;55.74;96573.66;5030233;28;20167;-67
2024/01/29 11:17:27;;;;;;;0.40;0.40;;;;;;;4.85;56.09;96572.59;5030442;28;20247;-67
2024/01/29 11:19:52;;;;;;;0.50;0.50;;;;;;;5.01;55.33;96569.50;5030544;28;20172;-68
2024/01/29 11:22:18;;;;;;;0.40;0.40;;;;;;;5.14;54.73;96570.03;5030292;28;20896;-68
2024/01/29 11:24:44;;;;;;;0.40;0.40;;;;;;;5.36;54.54;96553.31;5032479;28;20179;-68
2024/01/29 11:27:12;;;;;;;0.40;0.40;;;;;;;5.51;53.26;96554.56;5040935;28;20202;-68
2024/01/29 11:29:37;;;;;;;0.53;0.53;;;;;;;5.08;54.17;96565.38;5047835;28;20244;-68
2024/01/29 11:32:04;;;;;;;0.57;0.57;;;;;;;5.29;54.11;96566.06;5032858;28;20163;-68
2024/01/29 11:34:30;;;;;;;0.40;0.40;;;;;;;5.28;54.13;96564.44;5031076;28;20593;-68
2024/01/29 11:36:56;;;;;;;0.40;0.40;;;;;;;5.35;53.71;96551.66;5029977;28;20225;-69